createdAt,value
2017-11-09T00:00:25.204Z,20.9
2017-11-09T00:01:32.854Z,20.7
2017-11-09T00:02:40.934Z,20.8
2017-11-09T00:03:49.066Z,20.8
2017-11-09T00:04:57.121Z,20.8
2017-11-09T00:06:05.195Z,20.8
2017-11-09T00:07:13.280Z,20.8
2017-11-09T00:08:21.366Z,20.9
2017-11-09T00:09:29.456Z,20.8
2017-11-09T00:10:37.539Z,20.8
2017-11-09T00:11:45.625Z,20.8
2017-11-09T00:12:53.711Z,20.8
2017-11-09T00:14:01.796Z,20.9
2017-11-09T00:15:09.880Z,20.8
2017-11-09T00:16:17.968Z,20.8
2017-11-09T00:17:26.052Z,20.8
2017-11-09T00:18:34.471Z,20.8
2017-11-09T00:19:42.241Z,20.8
2017-11-09T00:20:50.312Z,20.8
2017-11-09T00:21:58.395Z,20.8
2017-11-09T00:23:06.628Z,20.8
2017-11-09T00:24:14.718Z,20.9
2017-11-09T00:25:22.799Z,20.9
2017-11-09T00:26:30.908Z,20.9
2017-11-09T00:27:38.969Z,20.8
2017-11-09T00:28:47.054Z,20.8
2017-11-09T00:29:55.140Z,20.8
2017-11-09T00:31:03.228Z,20.8
2017-11-09T00:32:11.312Z,20.8
2017-11-09T00:33:19.424Z,20.9
2017-11-09T00:34:27.509Z,20.9
2017-11-09T00:35:35.598Z,20.9
2017-11-09T00:36:43.684Z,20.9
2017-11-09T00:37:51.770Z,20.9
2017-11-09T00:38:59.856Z,20.9
2017-11-09T00:40:07.943Z,20.9
2017-11-09T00:41:16.032Z,20.9
2017-11-09T00:42:24.111Z,20.9
2017-11-09T00:43:32.199Z,20.9
2017-11-09T00:44:40.283Z,20.9
2017-11-09T00:45:48.371Z,20.9
2017-11-09T00:46:56.456Z,20.9
2017-11-09T00:48:04.542Z,20.9
2017-11-09T00:49:12.645Z,20.9
2017-11-09T00:50:20.716Z,20.9
2017-11-09T00:51:28.825Z,20.9
2017-11-09T00:52:36.905Z,20.9
2017-11-09T00:53:44.990Z,20.9
2017-11-09T00:54:53.079Z,21.0
2017-11-09T00:56:01.162Z,20.9
2017-11-09T00:57:09.255Z,20.9
2017-11-09T00:58:17.341Z,20.9
2017-11-09T00:59:25.426Z,20.9
2017-11-09T01:00:33.513Z,21.0
2017-11-09T01:01:41.599Z,20.9
2017-11-09T01:02:49.686Z,20.9
2017-11-09T01:03:57.771Z,20.9
2017-11-09T01:05:05.859Z,20.9
2017-11-09T01:06:13.938Z,20.9
2017-11-09T01:07:22.035Z,21.0
2017-11-09T01:08:30.111Z,20.9
2017-11-09T01:09:38.198Z,21.0
2017-11-09T01:10:46.295Z,21.0
2017-11-09T01:11:54.398Z,21.0
2017-11-09T01:13:02.489Z,20.9
2017-11-09T01:14:10.571Z,21.1
2017-11-09T01:15:18.657Z,20.9
2017-11-09T01:16:26.764Z,21.1
2017-11-09T01:17:34.830Z,20.9
2017-11-09T01:18:42.917Z,21.0
2017-11-09T01:19:51.003Z,21.0
2017-11-09T01:20:59.088Z,20.9
2017-11-09T01:22:07.175Z,21.1
2017-11-09T01:23:15.264Z,21.0
2017-11-09T01:24:23.353Z,21.1
2017-11-09T01:25:31.436Z,21.0
2017-11-09T01:26:39.523Z,21.0
2017-11-09T01:27:47.608Z,21.1
2017-11-09T01:28:55.685Z,21.0
2017-11-09T01:30:03.772Z,21.0
2017-11-09T01:31:11.860Z,21.0
2017-11-09T01:32:19.946Z,21.0
2017-11-09T01:33:28.031Z,21.0
2017-11-09T01:34:36.128Z,21.1
2017-11-09T01:35:44.212Z,21.0
2017-11-09T01:36:52.298Z,21.0
2017-11-09T01:38:00.389Z,21.0
2017-11-09T01:39:08.470Z,21.0
2017-11-09T01:40:16.581Z,21.0
2017-11-09T01:41:24.668Z,21.0
2017-11-09T01:42:32.754Z,21.0
2017-11-09T01:43:40.844Z,21.0
2017-11-09T01:44:48.929Z,21.0
2017-11-09T01:45:57.020Z,21.0
2017-11-09T01:47:05.106Z,21.0
2017-11-09T01:48:13.188Z,21.0
2017-11-09T01:49:21.272Z,21.0
2017-11-09T01:50:29.360Z,21.0
2017-11-09T01:51:37.446Z,21.0
2017-11-09T01:52:45.542Z,21.1
2017-11-09T01:53:53.675Z,21.0
2017-11-09T01:55:01.714Z,21.0
2017-11-09T01:56:09.813Z,21.0
2017-11-09T01:57:17.892Z,21.0
2017-11-09T01:58:25.977Z,21.1
2017-11-09T01:59:34.063Z,21.0
2017-11-09T02:00:42.153Z,21.0
2017-11-09T02:01:50.237Z,21.0
2017-11-09T02:02:58.335Z,21.0
2017-11-09T02:04:06.406Z,21.0
2017-11-09T02:05:14.492Z,21.0
2017-11-09T02:06:22.577Z,21.1
2017-11-09T02:07:30.670Z,21.0
2017-11-09T02:08:38.754Z,21.1
2017-11-09T02:09:46.836Z,21.0
2017-11-09T02:10:54.924Z,21.1
2017-11-09T02:12:03.016Z,21.1
2017-11-09T02:13:11.097Z,20.9
2017-11-09T02:14:19.181Z,20.9
2017-11-09T02:15:27.273Z,21.0
2017-11-09T02:16:35.352Z,21.1
2017-11-09T02:17:43.438Z,20.9
2017-11-09T02:18:51.523Z,21.0
2017-11-09T02:19:59.610Z,21.0
2017-11-09T02:21:07.716Z,21.0
2017-11-09T02:22:15.793Z,21.0
2017-11-09T02:23:23.881Z,21.0
2017-11-09T02:24:31.965Z,21.0
2017-11-09T02:25:40.049Z,20.9
2017-11-09T02:26:48.137Z,20.9
2017-11-09T02:27:56.223Z,20.9
2017-11-09T02:29:04.309Z,21.0
2017-11-09T02:30:12.395Z,21.0
2017-11-09T02:31:20.480Z,20.9
2017-11-09T02:32:28.564Z,21.0
2017-11-09T02:33:36.650Z,20.9
2017-11-09T02:34:44.738Z,20.9
2017-11-09T02:35:52.844Z,20.9
2017-11-09T02:37:00.909Z,20.9
2017-11-09T02:38:09.005Z,20.9
2017-11-09T02:39:17.095Z,20.9
2017-11-09T02:40:25.179Z,20.9
2017-11-09T02:41:33.265Z,20.9
2017-11-09T02:42:41.350Z,20.9
2017-11-09T02:43:49.437Z,20.8
2017-11-09T02:44:57.523Z,20.9
2017-11-09T02:46:05.611Z,20.9
2017-11-09T02:47:13.693Z,20.9
2017-11-09T02:48:21.779Z,20.8
2017-11-09T02:49:29.880Z,20.9
2017-11-09T02:50:37.951Z,20.8
2017-11-09T02:51:46.037Z,20.9
2017-11-09T02:52:54.129Z,20.9
2017-11-09T02:54:02.210Z,20.9
2017-11-09T02:55:10.296Z,20.8
2017-11-09T02:56:18.381Z,20.8
2017-11-09T02:57:26.471Z,20.9
2017-11-09T02:58:34.631Z,20.8
2017-11-09T02:59:42.640Z,20.8
2017-11-09T03:00:50.729Z,20.8
2017-11-09T03:01:58.809Z,20.8
2017-11-09T03:03:06.904Z,20.8
2017-11-09T03:04:15.000Z,20.8
2017-11-09T03:05:23.095Z,20.7
2017-11-09T03:06:31.181Z,20.7
2017-11-09T03:07:39.282Z,20.8
2017-11-09T03:08:47.360Z,20.8
2017-11-09T03:09:55.448Z,20.7
2017-11-09T03:11:03.530Z,20.7
2017-11-09T03:12:11.617Z,20.7
2017-11-09T03:13:19.705Z,20.7
2017-11-09T03:14:27.789Z,20.7
2017-11-09T03:15:35.874Z,20.7
2017-11-09T03:16:43.981Z,20.6
2017-11-09T03:17:52.058Z,20.7
2017-11-09T03:19:00.143Z,20.7
2017-11-09T03:20:08.230Z,20.7
2017-11-09T03:21:16.316Z,20.7
2017-11-09T03:22:24.402Z,20.7
2017-11-09T03:23:32.517Z,20.7
2017-11-09T03:24:40.604Z,20.6
2017-11-09T03:25:48.697Z,20.7
2017-11-09T03:26:56.777Z,20.7
2017-11-09T03:28:04.874Z,20.6
2017-11-09T03:29:12.949Z,20.6
2017-11-09T03:30:21.034Z,20.6
2017-11-09T03:31:29.118Z,20.6
2017-11-09T03:32:37.203Z,20.6
2017-11-09T03:33:45.291Z,20.6
2017-11-09T03:34:53.375Z,20.6
2017-11-09T03:36:01.463Z,20.6
2017-11-09T03:37:09.558Z,20.6
2017-11-09T03:38:17.660Z,20.5
2017-11-09T03:39:25.737Z,20.5
2017-11-09T03:40:33.823Z,20.5
2017-11-09T03:41:41.911Z,20.6
2017-11-09T03:42:49.996Z,20.5
2017-11-09T03:43:58.084Z,20.5
2017-11-09T03:45:06.471Z,20.5
2017-11-09T03:46:14.254Z,20.5
2017-11-09T03:47:22.359Z,20.5
2017-11-09T03:48:30.424Z,20.5
2017-11-09T03:49:38.522Z,20.5
2017-11-09T03:50:46.596Z,20.4
2017-11-09T03:51:54.683Z,20.5
2017-11-09T03:53:02.769Z,20.5
2017-11-09T03:54:10.855Z,20.3
2017-11-09T03:55:18.940Z,20.5
2017-11-09T03:56:27.025Z,20.5
2017-11-09T03:57:35.108Z,20.5
2017-11-09T03:58:43.196Z,20.5
2017-11-09T03:59:51.283Z,20.5
2017-11-09T04:00:59.367Z,20.5
2017-11-09T04:02:07.452Z,20.4
2017-11-09T04:03:15.541Z,20.5
2017-11-09T04:04:23.625Z,20.5
2017-11-09T04:05:31.715Z,20.5
2017-11-09T04:06:39.796Z,20.3
2017-11-09T04:07:47.882Z,20.3
2017-11-09T04:08:56.155Z,20.4
2017-11-09T04:10:04.240Z,20.4
2017-11-09T04:11:12.324Z,20.3
2017-11-09T04:12:20.410Z,20.4
2017-11-09T04:13:28.495Z,20.3
2017-11-09T04:14:36.581Z,20.4
2017-11-09T04:15:44.666Z,20.4
2017-11-09T04:16:52.769Z,20.4
2017-11-09T04:18:00.838Z,20.4
2017-11-09T04:19:08.925Z,20.3
2017-11-09T04:20:17.013Z,20.3
2017-11-09T04:21:25.111Z,20.3
2017-11-09T04:22:33.208Z,20.3
2017-11-09T04:23:41.284Z,20.3
2017-11-09T04:24:49.370Z,20.3
2017-11-09T04:25:57.454Z,20.2
2017-11-09T04:27:05.540Z,20.2
2017-11-09T04:28:13.624Z,20.3
2017-11-09T04:29:21.711Z,20.3
2017-11-09T04:30:29.797Z,20.2
2017-11-09T04:31:37.881Z,20.2
2017-11-09T04:32:45.985Z,20.2
2017-11-09T04:33:54.053Z,20.2
2017-11-09T04:35:02.148Z,20.1
2017-11-09T04:36:10.244Z,20.2
2017-11-09T04:37:18.332Z,20.2
2017-11-09T04:38:26.418Z,20.2
2017-11-09T04:39:34.500Z,20.1
2017-11-09T04:40:42.588Z,20.2
2017-11-09T04:41:50.670Z,20.2
2017-11-09T04:42:58.758Z,20.1
2017-11-09T04:44:06.843Z,20.1
2017-11-09T04:45:14.927Z,20.1
2017-11-09T04:46:23.013Z,20.1
2017-11-09T04:47:31.099Z,20.1
2017-11-09T04:48:39.186Z,20.1
2017-11-09T04:49:47.274Z,20.1
2017-11-09T04:50:55.386Z,20.1
2017-11-09T04:52:03.462Z,20.1
2017-11-09T04:53:11.529Z,20.1
2017-11-09T04:54:19.620Z,20.0
2017-11-09T04:55:27.699Z,20.0
2017-11-09T04:56:35.784Z,20.0
2017-11-09T04:57:44.144Z,20.1
2017-11-09T04:58:51.963Z,20.1
2017-11-09T05:00:00.050Z,20.0
2017-11-09T05:01:08.128Z,20.0
2017-11-09T05:02:16.214Z,19.9
2017-11-09T05:03:24.299Z,20.0
2017-11-09T05:04:32.385Z,19.9
2017-11-09T05:05:40.471Z,20.0
2017-11-09T05:06:48.557Z,19.9
2017-11-09T05:07:56.659Z,19.9
2017-11-09T05:09:04.736Z,19.9
2017-11-09T05:10:14.624Z,19.9
2017-11-09T05:11:22.723Z,19.9
2017-11-09T05:12:30.807Z,19.9
2017-11-09T05:13:38.892Z,19.9
2017-11-09T05:14:46.993Z,19.9
2017-11-09T05:15:55.141Z,19.9
2017-11-09T05:17:03.222Z,19.9
2017-11-09T05:18:11.310Z,19.8
2017-11-09T05:19:19.396Z,19.9
2017-11-09T05:20:27.480Z,19.9
2017-11-09T05:21:35.564Z,19.8
2017-11-09T05:22:43.658Z,19.8
2017-11-09T05:23:51.735Z,19.7
2017-11-09T05:24:59.818Z,19.7
2017-11-09T05:26:07.904Z,19.8
2017-11-09T05:27:15.995Z,19.7
2017-11-09T05:28:24.084Z,19.7
2017-11-09T05:29:32.158Z,19.7
2017-11-09T05:30:40.287Z,19.8
2017-11-09T05:31:48.372Z,19.7
2017-11-09T05:32:56.456Z,19.7
2017-11-09T05:34:04.542Z,19.7
2017-11-09T05:35:12.631Z,19.7
2017-11-09T05:36:20.729Z,19.7
2017-11-09T05:37:28.796Z,19.7
2017-11-09T05:38:36.883Z,19.7
2017-11-09T05:39:44.969Z,19.8
2017-11-09T05:40:53.056Z,19.7
2017-11-09T05:42:01.138Z,19.6
2017-11-09T05:43:09.223Z,19.7
2017-11-09T05:44:17.314Z,19.7
2017-11-09T05:45:25.397Z,19.7
2017-11-09T05:46:33.476Z,19.7
2017-11-09T05:47:41.568Z,19.6
2017-11-09T05:48:49.659Z,19.7
2017-11-09T05:49:57.740Z,19.6
2017-11-09T05:51:05.921Z,19.6
2017-11-09T05:52:13.910Z,19.7
2017-11-09T05:53:21.992Z,19.6
2017-11-09T05:54:30.077Z,19.6
2017-11-09T05:55:38.164Z,19.6
2017-11-09T05:56:46.249Z,19.6
2017-11-09T05:57:54.338Z,19.6
2017-11-09T05:59:02.432Z,19.7
2017-11-09T06:00:10.517Z,19.6
2017-11-09T06:01:19.222Z,19.6
2017-11-09T06:02:26.687Z,19.6
2017-11-09T06:03:34.799Z,19.6
2017-11-09T06:04:42.878Z,19.6
2017-11-09T06:05:50.955Z,19.6
2017-11-09T06:06:59.054Z,19.5
2017-11-09T06:08:07.122Z,19.5
2017-11-09T06:09:15.217Z,19.6
2017-11-09T06:10:23.298Z,19.5
2017-11-09T06:11:31.379Z,19.6
2017-11-09T06:12:39.465Z,19.6
2017-11-09T06:13:47.551Z,19.5
2017-11-09T06:14:56.246Z,19.6
2017-11-09T06:16:03.843Z,19.6
2017-11-09T06:17:11.802Z,19.5
2017-11-09T06:18:20.251Z,19.5
2017-11-09T06:19:28.343Z,19.6
2017-11-09T06:20:36.424Z,19.6
2017-11-09T06:21:44.504Z,19.6
2017-11-09T06:22:52.586Z,19.5
2017-11-09T06:24:00.673Z,19.6
2017-11-09T06:25:08.758Z,19.6
2017-11-09T06:26:16.853Z,19.6
2017-11-09T06:27:24.937Z,19.5
2017-11-09T06:28:33.024Z,19.6
2017-11-09T06:29:41.107Z,19.6
2017-11-09T06:30:49.190Z,19.6
2017-11-09T06:31:57.278Z,19.6
2017-11-09T06:33:05.360Z,19.6
2017-11-09T06:34:13.449Z,19.6
2017-11-09T06:35:21.532Z,19.6
2017-11-09T06:36:29.616Z,19.6
2017-11-09T06:37:37.708Z,19.6
2017-11-09T06:38:45.798Z,19.6
2017-11-09T06:39:53.873Z,19.6
2017-11-09T06:41:01.957Z,19.6
2017-11-09T06:42:10.046Z,19.6
2017-11-09T06:43:18.128Z,19.6
2017-11-09T06:44:26.215Z,19.6
2017-11-09T06:45:34.311Z,19.6
2017-11-09T06:46:42.396Z,19.6
2017-11-09T06:47:50.484Z,19.7
2017-11-09T06:48:58.578Z,19.7
2017-11-09T06:50:06.647Z,19.6
2017-11-09T06:51:14.734Z,19.7
2017-11-09T06:52:22.816Z,19.7
2017-11-09T06:53:30.904Z,19.7
2017-11-09T06:54:38.988Z,19.6
2017-11-09T06:55:47.095Z,19.6
2017-11-09T06:56:55.156Z,19.7
2017-11-09T06:58:03.244Z,19.7
2017-11-09T06:59:11.327Z,19.6
2017-11-09T07:00:19.433Z,19.8
2017-11-09T07:01:27.925Z,19.7
2017-11-09T07:02:35.583Z,19.6
2017-11-09T07:03:43.668Z,19.7
2017-11-09T07:04:51.762Z,19.6
2017-11-09T07:06:00.171Z,19.6
2017-11-09T07:07:07.939Z,19.7
2017-11-09T07:08:16.017Z,19.7
2017-11-09T07:09:24.104Z,19.7
2017-11-09T07:10:32.193Z,19.6
2017-11-09T07:11:40.277Z,19.7
2017-11-09T07:12:48.357Z,19.7
2017-11-09T07:13:56.843Z,19.6
2017-11-09T07:15:04.850Z,19.7
2017-11-09T07:16:12.941Z,19.7
2017-11-09T07:17:21.020Z,19.7
2017-11-09T07:18:29.106Z,19.7
2017-11-09T07:19:37.189Z,19.5
2017-11-09T07:20:45.278Z,19.7
2017-11-09T07:21:53.360Z,19.7
2017-11-09T07:23:01.454Z,19.7
2017-11-09T07:24:09.540Z,19.7
2017-11-09T07:25:17.626Z,19.7
2017-11-09T07:26:25.710Z,19.7
2017-11-09T07:27:33.794Z,19.7
2017-11-09T07:28:41.891Z,19.7
2017-11-09T07:29:49.973Z,19.7
2017-11-09T07:30:58.058Z,19.7
2017-11-09T07:32:06.147Z,19.7
2017-11-09T07:33:14.249Z,19.7
2017-11-09T07:34:22.337Z,19.6
2017-11-09T07:35:30.419Z,19.7
2017-11-09T07:36:38.516Z,19.7
2017-11-09T07:37:46.597Z,19.7
2017-11-09T07:38:54.688Z,19.7
2017-11-09T07:40:02.772Z,19.6
2017-11-09T07:41:10.862Z,19.7
2017-11-09T07:42:19.122Z,19.6
2017-11-09T07:43:27.036Z,19.7
2017-11-09T07:44:35.128Z,19.7
2017-11-09T07:45:43.214Z,19.7
2017-11-09T07:46:51.297Z,19.7
2017-11-09T07:47:59.382Z,19.6
2017-11-09T07:49:07.468Z,19.6
2017-11-09T07:50:15.556Z,19.7
2017-11-09T07:51:23.638Z,19.7
2017-11-09T07:52:31.724Z,19.7
2017-11-09T07:53:39.806Z,19.7
2017-11-09T07:54:47.893Z,19.7
2017-11-09T07:55:55.978Z,19.6
2017-11-09T07:57:04.141Z,19.7
2017-11-09T07:58:12.158Z,19.6
2017-11-09T07:59:20.235Z,19.7
2017-11-09T08:00:28.320Z,19.6
2017-11-09T08:01:36.405Z,19.7
2017-11-09T08:02:44.488Z,19.6
2017-11-09T08:03:52.577Z,19.7
2017-11-09T08:05:00.660Z,19.7
2017-11-09T08:06:08.745Z,19.7
2017-11-09T08:07:16.829Z,19.7
2017-11-09T08:08:24.915Z,19.7
2017-11-09T08:09:32.999Z,19.7
2017-11-09T08:10:41.092Z,19.7
2017-11-09T08:11:49.267Z,19.7
2017-11-09T08:12:57.352Z,19.7
2017-11-09T08:14:05.442Z,19.6
2017-11-09T08:15:13.537Z,19.7
2017-11-09T08:16:21.613Z,19.7
2017-11-09T08:17:29.714Z,19.7
2017-11-09T08:18:37.788Z,19.7
2017-11-09T08:19:45.867Z,19.6
2017-11-09T08:20:53.952Z,19.6
2017-11-09T08:22:02.062Z,19.7
2017-11-09T08:23:10.144Z,19.7
2017-11-09T08:24:18.209Z,19.6
2017-11-09T08:25:26.295Z,19.7
2017-11-09T08:26:34.381Z,19.8
2017-11-09T08:27:42.466Z,19.6
2017-11-09T08:28:50.549Z,19.6
2017-11-09T08:29:58.633Z,19.7
2017-11-09T08:31:06.723Z,19.7
2017-11-09T08:32:14.803Z,19.7
2017-11-09T08:33:22.890Z,19.7
2017-11-09T08:34:30.979Z,19.7
2017-11-09T08:35:39.061Z,19.7
2017-11-09T08:36:47.146Z,19.7
2017-11-09T08:37:55.230Z,19.6
2017-11-09T08:39:03.338Z,19.7
2017-11-09T08:40:11.402Z,19.7
2017-11-09T08:41:19.501Z,19.7
2017-11-09T08:42:27.574Z,19.6
2017-11-09T08:43:35.665Z,19.7
2017-11-09T08:44:43.751Z,19.6
2017-11-09T08:45:51.837Z,19.7
2017-11-09T08:46:59.918Z,19.7
2017-11-09T08:48:08.002Z,19.6
2017-11-09T08:49:16.093Z,19.6
2017-11-09T08:50:24.174Z,19.7
2017-11-09T08:51:32.268Z,19.6
2017-11-09T08:52:40.345Z,19.6
2017-11-09T08:53:48.428Z,19.7
2017-11-09T08:54:56.514Z,19.6
2017-11-09T08:56:04.599Z,19.6
2017-11-09T08:57:12.683Z,19.6
2017-11-09T08:58:20.768Z,19.6
2017-11-09T08:59:28.856Z,19.6
2017-11-09T09:00:36.939Z,19.6
2017-11-09T09:01:45.025Z,19.6
2017-11-09T09:02:53.109Z,19.6
2017-11-09T09:04:01.196Z,19.6
2017-11-09T09:05:09.280Z,19.6
2017-11-09T09:06:17.365Z,19.5
2017-11-09T09:07:25.449Z,19.6
2017-11-09T09:08:33.536Z,19.6
2017-11-09T09:09:41.618Z,19.6
2017-11-09T09:10:49.721Z,19.6
2017-11-09T09:11:57.790Z,19.5
2017-11-09T09:13:05.880Z,19.5
2017-11-09T09:14:13.964Z,19.6
2017-11-09T09:15:22.046Z,19.6
2017-11-09T09:16:30.129Z,19.6
2017-11-09T09:17:38.215Z,19.6
2017-11-09T09:18:46.300Z,19.6
2017-11-09T09:19:54.383Z,19.5
2017-11-09T09:21:02.470Z,19.6
2017-11-09T09:22:10.555Z,19.5
2017-11-09T09:23:18.640Z,19.6
2017-11-09T09:24:26.726Z,19.6
2017-11-09T09:25:34.811Z,19.6
2017-11-09T09:26:42.894Z,19.5
2017-11-09T09:27:50.985Z,19.6
2017-11-09T09:28:59.064Z,19.5
2017-11-09T09:30:07.224Z,19.5
2017-11-09T09:31:15.238Z,19.6
2017-11-09T09:32:23.326Z,19.5
2017-11-09T09:33:31.404Z,19.6
2017-11-09T09:34:39.489Z,19.6
2017-11-09T09:35:47.576Z,19.6
2017-11-09T09:36:55.662Z,19.6
2017-11-09T09:38:03.744Z,19.5
2017-11-09T09:39:11.831Z,19.4
2017-11-09T09:40:19.915Z,19.4
2017-11-09T09:41:28.003Z,19.5
2017-11-09T09:42:36.086Z,19.5
2017-11-09T09:43:44.172Z,19.4
2017-11-09T09:44:52.260Z,19.5
2017-11-09T09:46:00.364Z,19.4
2017-11-09T09:47:08.422Z,19.4
2017-11-09T09:48:16.511Z,19.4
2017-11-09T09:49:24.598Z,19.4
2017-11-09T09:50:32.680Z,19.5
2017-11-09T09:51:40.767Z,19.5
2017-11-09T09:52:48.870Z,19.5
2017-11-09T09:53:56.933Z,19.4
2017-11-09T09:55:05.027Z,19.5
2017-11-09T09:56:13.114Z,19.4
2017-11-09T09:57:21.195Z,19.4
2017-11-09T09:58:29.285Z,19.4
2017-11-09T09:59:37.367Z,19.4
2017-11-09T10:00:45.451Z,19.5
2017-11-09T10:01:53.548Z,19.5
2017-11-09T10:03:01.619Z,19.5
2017-11-09T10:04:09.758Z,19.5
2017-11-09T10:05:17.790Z,19.5
2017-11-09T10:06:25.887Z,19.5
2017-11-09T10:07:33.969Z,19.4
2017-11-09T10:08:42.081Z,19.5
2017-11-09T10:09:50.163Z,19.4
2017-11-09T10:10:58.247Z,19.5
2017-11-09T10:12:06.333Z,19.4
2017-11-09T10:13:14.426Z,19.4
2017-11-09T10:14:22.513Z,19.4
2017-11-09T10:15:30.596Z,19.4
2017-11-09T10:16:38.689Z,19.4
2017-11-09T10:17:46.775Z,19.4
2017-11-09T10:18:54.865Z,19.4
2017-11-09T10:20:02.950Z,19.5
2017-11-09T10:21:11.030Z,19.4
2017-11-09T10:22:19.116Z,19.4
2017-11-09T10:23:27.200Z,19.3
2017-11-09T10:24:35.285Z,19.4
2017-11-09T10:25:43.383Z,19.4
2017-11-09T10:26:51.466Z,19.4
2017-11-09T10:27:59.555Z,19.4
2017-11-09T10:29:07.636Z,19.4
2017-11-09T10:30:15.722Z,19.4
2017-11-09T10:31:23.803Z,19.4
2017-11-09T10:32:31.889Z,19.3
2017-11-09T10:33:39.979Z,19.3
2017-11-09T10:34:48.065Z,19.2
2017-11-09T10:35:56.149Z,19.3
2017-11-09T10:37:04.237Z,19.3
2017-11-09T10:38:12.319Z,19.3
2017-11-09T10:39:20.405Z,19.3
2017-11-09T10:40:28.493Z,19.2
2017-11-09T10:41:36.574Z,19.3
2017-11-09T10:42:44.665Z,19.3
2017-11-09T10:43:52.744Z,19.3
2017-11-09T10:45:00.828Z,19.3
2017-11-09T10:46:08.914Z,19.2
2017-11-09T10:47:17.007Z,19.3
2017-11-09T10:48:25.094Z,19.2
2017-11-09T10:49:33.179Z,19.3
2017-11-09T10:50:41.265Z,19.2
2017-11-09T10:51:49.348Z,19.2
2017-11-09T10:52:57.434Z,19.2
2017-11-09T10:54:05.518Z,19.2
2017-11-09T10:55:13.625Z,19.2
2017-11-09T10:56:21.688Z,19.2
2017-11-09T10:57:29.776Z,19.2
2017-11-09T10:58:37.864Z,19.2
2017-11-09T10:59:45.947Z,19.1
2017-11-09T11:00:54.034Z,19.1
2017-11-09T11:02:02.120Z,19.2
2017-11-09T11:03:10.201Z,19.2
2017-11-09T11:04:18.293Z,19.1
2017-11-09T11:05:26.375Z,19.1
2017-11-09T11:06:34.460Z,19.1
2017-11-09T11:07:42.550Z,19.2
2017-11-09T11:08:50.629Z,19.2
2017-11-09T11:09:58.717Z,19.1
2017-11-09T11:11:06.803Z,19.1
2017-11-09T11:12:14.889Z,19.1
2017-11-09T11:13:22.971Z,19.1
2017-11-09T11:14:31.055Z,19.1
2017-11-09T11:15:39.137Z,19.2
2017-11-09T11:16:47.238Z,19.1
2017-11-09T11:17:55.315Z,19.1
2017-11-09T11:19:03.395Z,19.1
2017-11-09T11:20:11.479Z,19.1
2017-11-09T11:21:19.569Z,19.0
2017-11-09T11:22:27.648Z,19.0
2017-11-09T11:23:35.751Z,19.1
2017-11-09T11:24:43.816Z,19.1
2017-11-09T11:25:51.902Z,19.1
2017-11-09T11:26:59.991Z,19.1
2017-11-09T11:28:08.080Z,19.0
2017-11-09T11:29:16.154Z,19.1
2017-11-09T11:30:24.244Z,19.1
2017-11-09T11:31:32.325Z,18.9
2017-11-09T11:32:40.411Z,19.0
2017-11-09T11:33:48.493Z,18.9
2017-11-09T11:34:56.953Z,19.1
2017-11-09T11:36:05.037Z,19.0
2017-11-09T11:37:13.124Z,19.0
2017-11-09T11:38:21.208Z,19.0
2017-11-09T11:39:29.302Z,18.9
2017-11-09T11:40:37.378Z,18.9
2017-11-09T11:41:45.500Z,18.9
2017-11-09T11:42:53.545Z,18.9
2017-11-09T11:44:01.631Z,18.9
2017-11-09T11:45:09.713Z,18.9
2017-11-09T11:46:17.799Z,19.0
2017-11-09T11:47:25.883Z,18.9
2017-11-09T11:48:33.966Z,18.9
2017-11-09T11:49:42.052Z,18.9
2017-11-09T11:50:50.136Z,19.0
2017-11-09T11:51:58.237Z,19.0
2017-11-09T11:53:06.305Z,18.8
2017-11-09T11:54:14.394Z,18.8
2017-11-09T11:55:22.474Z,18.9
2017-11-09T11:56:30.558Z,18.9
2017-11-09T11:57:38.642Z,18.9
2017-11-09T11:58:46.728Z,18.8
2017-11-09T11:59:54.822Z,18.9
2017-11-09T12:01:02.915Z,18.8
2017-11-09T12:02:10.999Z,18.8
2017-11-09T12:03:19.082Z,18.8
2017-11-09T12:04:27.167Z,18.9
2017-11-09T12:05:35.258Z,18.9
2017-11-09T12:06:43.339Z,18.8
2017-11-09T12:07:51.420Z,18.8
2017-11-09T12:08:59.507Z,18.8
2017-11-09T12:10:07.590Z,18.8
2017-11-09T12:11:15.675Z,18.9
2017-11-09T12:12:23.756Z,18.8
2017-11-09T12:13:31.841Z,18.8
2017-11-09T12:14:39.927Z,18.8
2017-11-09T12:15:48.010Z,18.7
2017-11-09T12:16:56.094Z,18.8
2017-11-09T12:18:04.179Z,18.8
2017-11-09T12:19:12.264Z,18.8
2017-11-09T12:20:20.346Z,18.8
2017-11-09T12:21:28.432Z,18.7
2017-11-09T12:22:36.517Z,18.7
2017-11-09T12:23:44.604Z,18.8
2017-11-09T12:24:52.688Z,18.7
2017-11-09T12:26:00.772Z,18.7
2017-11-09T12:27:08.857Z,18.7
2017-11-09T12:28:16.940Z,18.8
2017-11-09T12:29:25.026Z,18.7
2017-11-09T12:30:33.109Z,18.7
2017-11-09T12:31:41.195Z,18.7
2017-11-09T12:32:49.276Z,18.7
2017-11-09T12:33:57.362Z,18.7
2017-11-09T12:35:05.446Z,18.7
2017-11-09T12:36:13.532Z,18.7
2017-11-09T12:37:21.614Z,18.7
2017-11-09T12:38:29.699Z,18.7
2017-11-09T12:39:37.783Z,18.7
2017-11-09T12:40:45.867Z,18.6
2017-11-09T12:41:53.955Z,18.7
2017-11-09T12:43:02.032Z,18.7
2017-11-09T12:44:10.118Z,18.7
2017-11-09T12:45:18.204Z,18.6
2017-11-09T12:46:26.287Z,18.6
2017-11-09T12:47:34.371Z,18.6
2017-11-09T12:48:42.458Z,18.6
2017-11-09T12:49:50.539Z,18.6
2017-11-09T12:50:58.628Z,18.6
2017-11-09T12:52:06.705Z,18.6
2017-11-09T12:53:14.789Z,18.5
2017-11-09T12:54:22.873Z,18.6
2017-11-09T12:55:30.964Z,18.5
2017-11-09T12:56:39.042Z,18.5
2017-11-09T12:57:47.128Z,18.5
2017-11-09T12:58:55.210Z,18.6
2017-11-09T13:00:03.297Z,18.5
2017-11-09T13:01:11.377Z,18.5
2017-11-09T13:02:19.480Z,18.5
2017-11-09T13:03:27.547Z,18.5
2017-11-09T13:04:35.651Z,18.5
2017-11-09T13:05:43.719Z,18.5
2017-11-09T13:06:51.800Z,18.5
2017-11-09T13:07:59.885Z,18.5
2017-11-09T13:09:07.973Z,18.4
2017-11-09T13:10:16.053Z,18.4
2017-11-09T13:11:24.143Z,18.5
2017-11-09T13:12:32.220Z,18.4
2017-11-09T13:13:40.310Z,18.5
2017-11-09T13:14:48.397Z,18.5
2017-11-09T13:15:56.474Z,18.5
2017-11-09T13:17:04.558Z,18.4
2017-11-09T13:18:12.642Z,18.5
2017-11-09T13:19:20.724Z,18.5
2017-11-09T13:20:28.807Z,18.5
2017-11-09T13:21:36.891Z,18.4
2017-11-09T13:22:44.977Z,18.4
2017-11-09T13:23:53.057Z,18.4
2017-11-09T13:25:01.139Z,18.4
2017-11-09T13:26:09.228Z,18.4
2017-11-09T13:27:17.314Z,18.4
2017-11-09T13:28:25.402Z,18.4
2017-11-09T13:29:33.478Z,18.4
2017-11-09T13:30:41.560Z,18.4
2017-11-09T13:31:49.644Z,18.4
2017-11-09T13:32:57.729Z,18.4
2017-11-09T13:34:05.813Z,18.3
2017-11-09T13:35:13.897Z,18.3
2017-11-09T13:36:21.982Z,18.4
2017-11-09T13:37:30.070Z,18.4
2017-11-09T13:38:38.374Z,18.3
2017-11-09T13:39:46.456Z,18.3
2017-11-09T13:40:54.541Z,18.3
2017-11-09T13:42:02.633Z,18.4
2017-11-09T13:43:10.720Z,18.3
2017-11-09T13:44:18.795Z,18.2
2017-11-09T13:45:26.878Z,18.2
2017-11-09T13:46:34.962Z,18.2
2017-11-09T13:47:43.044Z,18.2
2017-11-09T13:48:51.134Z,18.2
2017-11-09T13:49:59.213Z,18.1
2017-11-09T13:51:07.304Z,18.1
2017-11-09T13:52:15.379Z,18.2
2017-11-09T13:53:23.476Z,18.3
2017-11-09T13:54:31.558Z,18.1
2017-11-09T13:55:39.642Z,18.2
2017-11-09T13:56:47.723Z,18.2
2017-11-09T13:57:55.808Z,18.2
2017-11-09T13:59:03.889Z,18.2
2017-11-09T14:00:11.984Z,18.2
2017-11-09T14:01:20.070Z,18.2
2017-11-09T14:02:28.151Z,18.2
2017-11-09T14:03:36.235Z,18.2
2017-11-09T14:04:44.317Z,18.2
2017-11-09T14:05:52.403Z,18.3
2017-11-09T14:07:00.485Z,18.2
2017-11-09T14:08:08.595Z,18.2
2017-11-09T14:09:16.653Z,18.1
2017-11-09T14:10:24.738Z,18.1
2017-11-09T14:11:32.838Z,18.1
2017-11-09T14:12:40.915Z,18.1
2017-11-09T14:13:49.190Z,18.1
2017-11-09T14:14:57.279Z,18.1
2017-11-09T14:16:05.355Z,18.1
2017-11-09T14:17:13.441Z,18.1
2017-11-09T14:18:21.542Z,18.1
2017-11-09T14:19:29.607Z,18.1
2017-11-09T14:20:37.692Z,18.1
2017-11-09T14:21:45.779Z,18.1
2017-11-09T14:22:53.858Z,18.1
2017-11-09T14:24:02.146Z,18.1
2017-11-09T14:25:10.233Z,18.1
2017-11-09T14:26:18.312Z,18.0
2017-11-09T14:27:26.407Z,18.1
2017-11-09T14:28:34.480Z,18.0
2017-11-09T14:29:42.562Z,18.1
2017-11-09T14:30:50.647Z,18.0
2017-11-09T14:31:58.732Z,18.0
2017-11-09T14:33:06.865Z,18.1
2017-11-09T14:34:14.900Z,18.0
2017-11-09T14:35:22.982Z,18.0
2017-11-09T14:36:31.067Z,18.0
2017-11-09T14:37:39.153Z,17.9
2017-11-09T14:38:47.238Z,17.9
2017-11-09T14:39:55.326Z,17.9
2017-11-09T14:41:03.405Z,18.0
2017-11-09T14:42:11.489Z,18.0
2017-11-09T14:43:19.573Z,18.0
2017-11-09T14:44:27.674Z,18.0
2017-11-09T14:45:35.743Z,18.0
2017-11-09T14:46:43.825Z,18.0
2017-11-09T14:47:51.905Z,18.0
2017-11-09T14:48:59.991Z,18.0
2017-11-09T14:50:08.076Z,17.9
2017-11-09T14:51:16.159Z,18.0
2017-11-09T14:52:24.242Z,18.0
2017-11-09T14:53:32.327Z,17.9
2017-11-09T14:54:40.411Z,17.9
2017-11-09T14:55:48.493Z,17.9
2017-11-09T14:56:56.577Z,17.9
2017-11-09T14:58:04.665Z,17.9
2017-11-09T14:59:12.754Z,17.9
2017-11-09T15:00:20.835Z,17.9
2017-11-09T15:01:28.918Z,18.0
2017-11-09T15:02:37.036Z,17.9
2017-11-09T15:03:45.087Z,17.9
2017-11-09T15:04:53.186Z,17.8
2017-11-09T15:06:01.265Z,17.8